Time;durP1;ratioP1;P1;durP2;ratioP2;P2;SDS_P1;SDS_P2;PMS_P1;PMS_P2;Temp;Humidity;BMP_temperature;BMP_pressure;BME280_temperature;BME280_humidity;BME280_pressure;Samples;Min_cycle;Max_cycle;Signal;HPM_P1;HPM_P2
2022/05/17 00:01:03;;;;;;;4.30;3.70;;;17.60;99.90;;;;;;5046834;28;20443;-73
2022/05/17 00:03:29;;;;;;;5.07;3.50;;;17.60;99.90;;;;;;5046114;28;20552;-75
2022/05/17 00:05:55;;;;;;;3.47;3.17;;;17.60;99.90;;;;;;5046638;28;20505;-74
2022/05/17 00:08:20;;;;;;;6.77;3.90;;;17.60;99.90;;;;;;5046174;28;20183;-74
2022/05/17 00:10:47;;;;;;;4.00;3.53;;;17.70;99.90;;;;;;5045944;28;20265;-74
2022/05/17 00:13:15;;;;;;;4.03;3.20;;;17.70;99.90;;;;;;5045522;28;20198;-74
2022/05/17 00:15:44;;;;;;;4.00;3.20;;;17.80;99.90;;;;;;5045785;28;20839;-74
2022/05/17 00:18:12;;;;;;;9.40;4.37;;;17.80;99.90;;;;;;5046139;28;20592;-75
2022/05/17 00:20:41;;;;;;;3.73;3.43;;;17.70;99.90;;;;;;5046114;28;20517;-74
2022/05/17 00:23:07;;;;;;;6.50;3.80;;;17.70;99.90;;;;;;5045444;28;20901;-74
2022/05/17 00:25:34;;;;;;;5.63;3.53;;;17.60;99.90;;;;;;5046340;28;20821;-74
2022/05/17 00:27:59;;;;;;;5.00;4.10;;;17.50;99.90;;;;;;5045884;28;20464;-75
2022/05/17 00:30:25;;;;;;;6.47;4.03;;;17.60;99.90;;;;;;5046284;28;20421;-74
2022/05/17 00:32:51;;;;;;;6.27;3.70;;;17.50;99.90;;;;;;5030212;28;20264;-74
2022/05/17 00:35:17;;;;;;;4.23;3.23;;;17.50;99.90;;;;;;5046003;28;20178;-75
2022/05/17 00:37:42;;;;;;;4.13;3.20;;;17.50;99.90;;;;;;5045689;28;20184;-74
2022/05/17 00:40:10;;;;;;;4.00;3.60;;;17.40;99.90;;;;;;5044915;28;20554;-74
2022/05/17 00:42:36;;;;;;;4.13;3.70;;;17.40;99.90;;;;;;5044674;28;20225;-74
2022/05/17 00:45:02;;;;;;;5.43;3.50;;;17.30;99.90;;;;;;5045019;28;20413;-74
2022/05/17 00:47:37;;;;;;;5.10;3.53;;;17.40;99.90;;;;;;5044832;28;20238;-74
2022/05/17 00:50:31;;;;;;;4.33;3.40;;;17.50;99.90;;;;;;5044717;28;21444;-74
2022/05/17 00:53:07;;;;;;;4.43;3.60;;;17.40;99.90;;;;;;5044473;28;20518;-74
2022/05/17 00:56:00;;;;;;;4.20;3.20;;;17.30;99.90;;;;;;5074961;22;20490;-75
2022/05/17 00:58:40;;;;;;;6.90;3.83;;;17.30;99.90;;;;;;5056145;28;20436;-75
2022/05/17 01:01:23;;;;;;;5.53;3.50;;;17.40;99.90;;;;;;5064564;28;20407;-74
2022/05/17 01:04:06;;;;;;;6.50;3.77;;;17.30;99.90;;;;;;5064698;28;20440;-75
2022/05/17 01:06:59;;;;;;;5.57;3.50;;;17.30;99.90;;;;;;5042443;28;21015;-75
2022/05/17 01:09:25;;;;;;;5.27;3.83;;;17.20;99.90;;;;;;5013552;28;20745;-75
2022/05/17 01:11:51;;;;;;;6.33;3.90;;;17.30;99.90;;;;;;5043839;28;21063;-75
2022/05/17 01:17:01;;;;;;;5.07;4.13;;;17.30;99.90;;;;;;5045534;28;20542;-75
2022/05/17 01:19:27;;;;;;;4.17;3.47;;;17.30;99.90;;;;;;5044775;28;20413;-74
2022/05/17 01:21:52;;;;;;;6.50;3.77;;;17.30;99.90;;;;;;5044993;28;21363;-76
2022/05/17 01:24:18;;;;;;;4.27;3.63;;;17.30;99.90;;;;;;5044667;28;20197;-76
2022/05/17 01:26:51;;;;;;;3.87;3.50;;;17.40;99.90;;;;;;5044305;28;20277;-76
2022/05/17 01:29:16;;;;;;;5.13;4.67;;;17.40;99.90;;;;;;5045091;28;20170;-76
2022/05/17 01:31:42;;;;;;;5.40;3.77;;;17.40;99.90;;;;;;5044888;28;20833;-76
2022/05/17 01:34:13;;;;;;;5.57;4.53;;;17.20;99.90;;;;;;5044743;28;20178;-75
2022/05/17 01:36:40;;;;;;;4.50;4.10;;;17.20;99.90;;;;;;5026400;28;20226;-76
2022/05/17 01:39:06;;;;;;;3.93;3.30;;;17.10;99.90;;;;;;5044432;28;20416;-75
2022/05/17 01:41:32;;;;;;;5.60;4.20;;;17.10;99.90;;;;;;5044015;28;20423;-76
2022/05/17 01:43:58;;;;;;;8.90;4.10;;;17.10;99.90;;;;;;5044084;28;20549;-75
2022/05/17 01:46:24;;;;;;;7.17;4.00;;;17.10;99.90;;;;;;5044390;28;20180;-76
2022/05/17 01:48:51;;;;;;;4.63;4.13;;;17.10;99.90;;;;;;5044125;28;20414;-76
2022/05/17 01:51:19;;;;;;;3.90;3.60;;;17.00;99.90;;;;;;5044290;28;20272;-75
2022/05/17 01:53:44;;;;;;;4.37;3.90;;;17.00;99.90;;;;;;5026571;28;20431;-76
2022/05/17 01:56:11;;;;;;;8.67;5.40;;;17.10;99.90;;;;;;5043780;28;20455;-76
2022/05/17 01:58:37;;;;;;;5.07;4.13;;;17.10;99.90;;;;;;5026117;28;20200;-75
2022/05/17 02:01:06;;;;;;;6.03;4.17;;;17.00;99.90;;;;;;5044028;28;20419;-76
2022/05/17 02:03:32;;;;;;;4.47;3.63;;;17.10;99.90;;;;;;5043975;28;20461;-75
2022/05/17 02:05:57;;;;;;;6.00;3.60;;;17.00;99.90;;;;;;5043752;28;20444;-76
2022/05/17 02:08:23;;;;;;;4.80;4.33;;;16.90;99.90;;;;;;5025996;28;20280;-74
2022/05/17 02:10:48;;;;;;;4.90;4.50;;;16.80;99.90;;;;;;5044538;28;20197;-76
2022/05/17 02:13:17;;;;;;;7.37;4.83;;;16.70;99.90;;;;;;5043632;28;20188;-74
2022/05/17 02:15:42;;;;;;;4.93;4.33;;;16.70;99.90;;;;;;5043956;28;20199;-76
2022/05/17 02:18:08;;;;;;;4.53;3.67;;;16.60;99.90;;;;;;5026257;28;20434;-76
2022/05/17 02:20:34;;;;;;;4.97;4.00;;;16.60;99.90;;;;;;5043748;28;20549;-76
2022/05/17 02:23:00;;;;;;;4.73;4.30;;;16.60;99.90;;;;;;5044079;28;20233;-74
2022/05/17 02:25:26;;;;;;;5.03;4.00;;;16.60;99.90;;;;;;5044601;28;21003;-75
2022/05/17 02:27:52;;;;;;;6.03;4.47;;;16.60;99.90;;;;;;5047540;28;20187;-75
2022/05/17 02:30:18;;;;;;;4.33;3.93;;;16.70;99.90;;;;;;5048037;28;20479;-75
2022/05/17 02:32:43;;;;;;;7.83;5.37;;;16.70;99.90;;;;;;5047665;28;20567;-75
2022/05/17 02:35:12;;;;;;;4.90;4.33;;;16.60;99.90;;;;;;5029536;28;20199;-74
2022/05/17 02:37:38;;;;;;;6.13;4.70;;;16.60;99.90;;;;;;5048128;28;20178;-75
2022/05/17 02:40:05;;;;;;;5.80;5.10;;;16.50;99.90;;;;;;5047776;28;20422;-73
2022/05/17 02:42:30;;;;;;;4.40;4.00;;;16.60;99.90;;;;;;5047351;28;20455;-76
2022/05/17 02:44:56;;;;;;;5.17;4.67;;;16.60;99.90;;;;;;5047532;28;20432;-76
2022/05/17 02:47:22;;;;;;;5.63;4.57;;;16.60;99.90;;;;;;5047659;28;20187;-76
2022/05/17 02:49:47;;;;;;;6.30;4.50;;;16.60;99.90;;;;;;5047545;28;20261;-75
2022/05/17 02:52:13;;;;;;;5.60;4.90;;;16.60;99.90;;;;;;5047598;28;20190;-76
2022/05/17 02:54:40;;;;;;;6.13;4.73;;;16.60;99.90;;;;;;5047487;28;20228;-75
2022/05/17 02:57:06;;;;;;;4.57;4.17;;;16.60;99.90;;;;;;5047257;28;20190;-74
2022/05/17 02:59:32;;;;;;;4.50;4.10;;;16.60;99.90;;;;;;5047776;28;20946;-75
2022/05/17 03:01:59;;;;;;;4.73;4.33;;;16.60;99.90;;;;;;5029547;28;20427;-75
2022/05/17 03:04:26;;;;;;;8.87;5.10;;;16.60;99.90;;;;;;5047335;28;20328;-75
2022/05/17 03:06:55;;;;;;;6.23;5.63;;;16.50;99.90;;;;;;5047569;28;20928;-75
2022/05/17 03:09:21;;;;;;;4.50;4.10;;;16.50;99.90;;;;;;5047277;28;20413;-75
2022/05/17 03:11:47;;;;;;;7.67;4.97;;;16.50;99.90;;;;;;5046910;28;20408;-75
2022/05/17 03:14:14;;;;;;;5.47;4.93;;;16.50;99.90;;;;;;5047288;28;20181;-75
2022/05/17 03:16:40;;;;;;;5.63;5.10;;;16.50;99.90;;;;;;5029068;28;20188;-74
2022/05/17 03:19:07;;;;;;;5.63;5.07;;;16.50;99.90;;;;;;5029368;28;20421;-75
2022/05/17 03:21:32;;;;;;;6.17;5.33;;;16.40;99.90;;;;;;5029363;28;20416;-75
2022/05/17 03:23:58;;;;;;;4.87;4.37;;;16.40;99.90;;;;;;5046502;28;20453;-74
2022/05/17 03:26:24;;;;;;;6.10;4.80;;;16.40;99.90;;;;;;5046847;28;20186;-75
2022/05/17 03:28:50;;;;;;;6.33;5.70;;;16.30;99.90;;;;;;5046295;28;20473;-75
2022/05/17 03:31:16;;;;;;;5.23;4.77;;;16.30;99.90;;;;;;5047019;28;20176;-75
2022/05/17 03:33:41;;;;;;;7.30;5.20;;;16.20;99.90;;;;;;5046715;28;20192;-75
2022/05/17 03:36:08;;;;;;;6.60;5.93;;;16.20;99.90;;;;;;5046870;28;20566;-75
2022/05/17 03:38:35;;;;;;;5.80;5.30;;;16.20;99.90;;;;;;5045843;28;20251;-75
2022/05/17 03:41:01;;;;;;;6.70;5.60;;;16.20;99.90;;;;;;5046317;28;21354;-75
2022/05/17 03:43:28;;;;;;;9.27;5.70;;;16.20;99.90;;;;;;5046331;28;20600;-75
2022/05/17 03:45:57;;;;;;;5.60;5.10;;;16.20;99.90;;;;;;5046465;28;20513;-75
2022/05/17 03:48:25;;;;;;;6.13;4.47;;;16.20;99.90;;;;;;5046375;28;20404;-75
2022/05/17 03:50:52;;;;;;;5.80;5.20;;;16.20;99.90;;;;;;5046328;28;20910;-74
2022/05/17 03:53:18;;;;;;;6.00;5.40;;;16.20;99.90;;;;;;5046672;28;20415;-74
2022/05/17 03:55:44;;;;;;;8.40;5.10;;;16.20;99.90;;;;;;5045929;28;20507;-75
2022/05/17 03:58:10;;;;;;;5.80;5.20;;;16.20;99.90;;;;;;5046335;28;20453;-75
2022/05/17 04:00:36;;;;;;;6.53;5.20;;;16.20;99.90;;;;;;5046997;28;20439;-75
2022/05/17 04:03:03;;;;;;;7.07;5.23;;;16.20;99.90;;;;;;5046852;28;20456;-75
2022/05/17 04:05:28;;;;;;;5.47;4.97;;;16.30;99.90;;;;;;5046670;28;20485;-74
2022/05/17 04:07:54;;;;;;;5.17;4.77;;;16.30;99.90;;;;;;5046144;28;20899;-75
2022/05/17 04:10:20;;;;;;;6.43;5.80;;;16.30;99.90;;;;;;5046535;28;20176;-74
2022/05/17 04:12:46;;;;;;;6.33;5.37;;;16.30;99.90;;;;;;5045543;28;20226;-77
2022/05/17 04:15:15;;;;;;;5.87;5.10;;;16.30;99.90;;;;;;5046323;28;20202;-76
2022/05/17 04:17:41;;;;;;;6.00;5.50;;;16.30;99.90;;;;;;5046153;28;20483;-76
2022/05/17 04:20:08;;;;;;;6.27;5.67;;;16.40;99.90;;;;;;5046130;28;20463;-76
2022/05/17 04:22:34;;;;;;;6.47;5.73;;;16.30;99.90;;;;;;5046278;28;20410;-74
2022/05/17 04:25:00;;;;;;;5.73;5.20;;;16.30;99.90;;;;;;5028283;28;20455;-77
2022/05/17 04:27:26;;;;;;;6.33;5.40;;;16.30;99.90;;;;;;5026853;28;20807;-76
2022/05/17 04:29:52;;;;;;;5.93;5.33;;;16.30;99.90;;;;;;5045909;28;20173;-76
2022/05/17 04:32:18;;;;;;;8.77;5.73;;;16.30;99.90;;;;;;5027621;28;20425;-75
2022/05/17 04:34:44;;;;;;;5.80;5.20;;;16.30;99.90;;;;;;5045771;28;21148;-74
2022/05/17 04:37:10;;;;;;;5.60;4.93;;;16.40;99.90;;;;;;5027804;28;20431;-76
2022/05/17 04:39:36;;;;;;;6.80;5.80;;;16.40;99.90;;;;;;5045470;28;20783;-76
2022/05/17 04:42:01;;;;;;;6.00;5.50;;;16.50;99.90;;;;;;5044793;28;20424;-76
2022/05/17 04:44:27;;;;;;;5.63;4.97;;;16.50;99.90;;;;;;5027023;28;20216;-76
2022/05/17 04:46:53;;;;;;;7.50;5.70;;;16.50;99.90;;;;;;5045817;28;20177;-76
2022/05/17 04:49:19;;;;;;;7.17;6.47;;;16.50;99.90;;;;;;5045404;28;20434;-76
2022/05/17 04:51:46;;;;;;;8.20;6.70;;;16.60;99.90;;;;;;5045715;28;20487;-77
2022/05/17 04:54:12;;;;;;;6.27;5.43;;;16.60;99.90;;;;;;5045662;28;20939;-76
2022/05/17 04:56:37;;;;;;;5.93;5.43;;;16.70;99.90;;;;;;5027487;28;20468;-76
2022/05/17 04:59:03;;;;;;;7.93;6.20;;;16.70;99.90;;;;;;5027268;28;20227;-76
2022/05/17 05:01:31;;;;;;;6.13;4.83;;;16.70;99.90;;;;;;5045120;28;20192;-76
2022/05/17 05:03:57;;;;;;;8.03;6.53;;;16.80;99.90;;;;;;5045355;28;20463;-76
2022/05/17 05:06:23;;;;;;;7.90;7.20;;;16.80;99.90;;;;;;5026832;28;21040;-76
2022/05/17 05:08:49;;;;;;;6.43;5.70;;;16.90;99.90;;;;;;5045082;28;20423;-76
2022/05/17 05:11:14;;;;;;;6.73;5.83;;;17.00;99.90;;;;;;5045696;28;20190;-76
2022/05/17 05:13:40;;;;;;;6.20;5.60;;;17.00;99.90;;;;;;5045850;28;20242;-74
2022/05/17 05:16:12;;;;;;;7.00;5.87;;;17.10;99.90;;;;;;5044808;28;20209;-77
2022/05/17 05:18:38;;;;;;;6.93;5.70;;;17.20;99.90;;;;;;5045994;28;20177;-78
2022/05/17 05:21:08;;;;;;;6.10;5.60;;;17.30;99.90;;;;;;5044542;28;20421;-75
2022/05/17 05:23:34;;;;;;;5.77;5.27;;;17.40;99.90;;;;;;5047490;28;20200;-77
2022/05/17 05:26:00;;;;;;;6.63;5.90;;;17.50;99.90;;;;;;5028813;28;20460;-76
2022/05/17 05:28:26;;;;;;;5.77;5.23;;;17.60;99.90;;;;;;5044843;28;20185;-77
2022/05/17 05:30:52;;;;;;;7.07;5.97;;;17.70;99.90;;;;;;5047061;28;20421;-76
2022/05/17 05:33:18;;;;;;;5.30;4.80;;;17.80;99.90;;;;;;5029706;28;20186;-77
2022/05/17 05:35:44;;;;;;;5.50;5.00;;;17.90;99.90;;;;;;5046659;28;20433;-76
2022/05/17 05:38:10;;;;;;;6.87;5.70;;;18.00;99.90;;;;;;5044751;28;20589;-76
2022/05/17 05:40:35;;;;;;;5.30;4.90;;;18.10;99.90;;;;;;5044612;28;20454;-76
2022/05/17 05:43:01;;;;;;;7.10;5.70;;;18.30;99.90;;;;;;5044333;28;20202;-77
2022/05/17 05:45:26;;;;;;;7.27;5.20;;;18.30;99.90;;;;;;5045680;28;20240;-77
2022/05/17 05:47:53;;;;;;;4.73;4.33;;;18.40;99.90;;;;;;5046015;28;20182;-75
2022/05/17 05:50:18;;;;;;;6.13;5.60;;;18.50;99.90;;;;;;5033116;28;20434;-77
2022/05/17 05:52:45;;;;;;;5.90;5.33;;;18.60;99.90;;;;;;5046191;28;20531;-76
2022/05/17 05:55:19;;;;;;;6.43;5.10;;;18.70;99.90;;;;;;5043789;28;20214;-76
2022/05/17 05:57:46;;;;;;;5.30;4.63;;;18.90;99.90;;;;;;5045452;28;20503;-74
2022/05/17 06:00:12;;;;;;;11.37;6.47;;;19.10;99.90;;;;;;5043633;28;20444;-75
2022/05/17 06:02:38;;;;;;;6.70;6.13;;;19.20;99.90;;;;;;5043689;28;20518;-74
2022/05/17 06:05:05;;;;;;;7.13;5.57;;;19.30;99.90;;;;;;5043855;28;20776;-75
2022/05/17 06:07:31;;;;;;;6.57;4.63;;;19.40;99.90;;;;;;5043867;28;20532;-76
2022/05/17 06:09:57;;;;;;;5.53;4.87;;;19.40;99.90;;;;;;5044198;28;20499;-77
2022/05/17 06:12:22;;;;;;;5.60;5.10;;;19.50;99.90;;;;;;5043947;28;20179;-75
2022/05/17 06:14:48;;;;;;;6.27;5.10;;;19.60;99.90;;;;;;5043443;28;20595;-76
2022/05/17 06:17:13;;;;;;;5.67;5.17;;;19.80;99.90;;;;;;5026575;28;20697;-78
2022/05/17 06:19:39;;;;;;;5.43;4.90;;;19.80;99.90;;;;;;5050026;28;20246;-78
2022/05/17 06:22:04;;;;;;;6.20;4.80;;;20.00;99.90;;;;;;5027683;28;20239;-77
2022/05/17 06:24:30;;;;;;;6.70;4.97;;;20.10;99.90;;;;;;5043903;28;20205;-76
2022/05/17 06:26:56;;;;;;;5.10;4.57;;;20.20;99.90;;;;;;5026104;28;20190;-74
2022/05/17 06:29:22;;;;;;;5.37;4.50;;;20.30;99.90;;;;;;5044934;28;20221;-76
2022/05/17 06:31:47;;;;;;;7.90;5.30;;;20.30;99.90;;;;;;5043917;28;20240;-75
2022/05/17 06:34:13;;;;;;;5.67;5.17;;;20.40;99.90;;;;;;5045076;28;20421;-77
2022/05/17 06:36:40;;;;;;;6.77;4.70;;;20.60;99.90;;;;;;5026616;28;20186;-75
2022/05/17 06:39:08;;;;;;;6.57;6.00;;;20.70;99.90;;;;;;5044539;28;20170;-75
2022/05/17 06:41:34;;;;;;;6.40;5.40;;;20.90;99.90;;;;;;5027417;28;20464;-77
2022/05/17 06:44:01;;;;;;;6.43;4.77;;;20.70;99.90;;;;;;5025444;28;20457;-74
2022/05/17 06:46:26;;;;;;;6.30;5.13;;;20.60;99.90;;;;;;5026614;28;20429;-75
2022/05/17 06:48:52;;;;;;;6.73;6.03;;;20.70;99.90;;;;;;5043020;28;20503;-74
2022/05/17 06:51:18;;;;;;;7.87;5.57;;;20.50;99.90;;;;;;5042619;28;20526;-74
2022/05/17 06:53:43;;;;;;;7.83;5.70;;;20.70;99.90;;;;;;5043652;28;20240;-72
2022/05/17 06:56:09;;;;;;;7.67;5.30;;;21.00;99.90;;;;;;5097641;22;20229;-72
2022/05/17 06:58:35;;;;;;;4.93;4.43;;;21.00;99.90;;;;;;5070082;28;20551;-73
2022/05/17 07:01:00;;;;;;;6.87;5.53;;;21.20;99.90;;;;;;5078868;28;20195;-73
2022/05/17 07:03:26;;;;;;;9.53;6.20;;;21.40;99.90;;;;;;5069906;28;20202;-70
2022/05/17 07:05:52;;;;;;;8.67;5.93;;;21.10;99.90;;;;;;5081643;28;20248;-71
2022/05/17 07:08:18;;;;;;;10.20;6.23;;;21.00;99.90;;;;;;5089972;28;20459;-72
2022/05/17 07:13:28;;;;;;;6.00;5.33;;;21.20;99.90;;;;;;5074507;28;20445;-73
2022/05/17 07:15:54;;;;;;;8.07;6.10;;;21.10;99.90;;;;;;5078744;28;20914;-73
2022/05/17 07:18:23;;;;;;;10.17;6.30;;;21.00;99.90;;;;;;5077478;28;20189;-74
2022/05/17 07:20:49;;;;;;;8.60;5.97;;;21.20;99.90;;;;;;5089058;28;20426;-74
2022/05/17 07:23:15;;;;;;;8.27;6.57;;;21.40;99.90;;;;;;5079564;28;20451;-73
2022/05/17 07:25:42;;;;;;;7.87;6.90;;;21.50;99.90;;;;;;5074278;28;20273;-74
2022/05/17 07:28:08;;;;;;;7.93;6.50;;;21.60;99.90;;;;;;5083275;28;20903;-70
2022/05/17 07:30:34;;;;;;;9.00;6.40;;;21.40;99.90;;;;;;5086893;28;20399;-69
2022/05/17 07:33:00;;;;;;;10.13;6.70;;;21.30;99.90;;;;;;5085533;28;20484;-73
2022/05/17 07:35:25;;;;;;;6.90;5.93;;;21.20;99.90;;;;;;5083844;28;20219;-72
2022/05/17 07:37:51;;;;;;;7.20;5.70;;;21.40;99.90;;;;;;5078354;28;20231;-73
2022/05/17 07:40:18;;;;;;;7.33;5.50;;;21.50;99.90;;;;;;5067791;28;20178;-71
2022/05/17 07:42:44;;;;;;;7.67;5.10;;;21.40;99.90;;;;;;5069658;28;20280;-72
2022/05/17 07:45:15;;;;;;;6.60;5.17;;;21.30;99.90;;;;;;5076000;28;20427;-73
2022/05/17 07:47:41;;;;;;;8.97;5.20;;;21.60;99.90;;;;;;5068959;28;20404;-71
2022/05/17 07:50:07;;;;;;;6.13;4.63;;;21.50;99.90;;;;;;5064325;28;20958;-70
2022/05/17 07:52:33;;;;;;;7.87;5.83;;;21.50;99.90;;;;;;5073506;28;20204;-75
2022/05/17 07:55:00;;;;;;;7.30;5.00;;;21.30;99.90;;;;;;5073549;28;20928;-73
2022/05/17 07:57:27;;;;;;;4.93;4.40;;;21.30;99.90;;;;;;5071206;28;20511;-74
2022/05/17 07:59:53;;;;;;;5.37;4.83;;;21.30;99.90;;;;;;5081098;28;20415;-74
2022/05/17 08:02:19;;;;;;;5.67;4.97;;;21.60;99.90;;;;;;5091612;28;20932;-74
2022/05/17 08:04:45;;;;;;;6.13;4.97;;;21.50;99.90;;;;;;5065846;28;20170;-74
2022/05/17 08:07:10;;;;;;;5.40;3.90;;;21.40;99.90;;;;;;5070161;28;20458;-74
2022/05/17 08:09:37;;;;;;;5.93;4.60;;;21.40;99.90;;;;;;5070306;28;20506;-71
2022/05/17 08:12:06;;;;;;;7.10;5.23;;;21.80;99.90;;;;;;5078019;28;20650;-73
2022/05/17 08:14:34;;;;;;;7.83;4.47;;;22.00;99.90;;;;;;5076414;28;20438;-72
2022/05/17 08:17:01;;;;;;;3.57;3.27;;;22.00;99.90;;;;;;5076880;28;20419;-72
2022/05/17 08:19:26;;;;;;;5.60;4.43;;;22.40;99.90;;;;;;5101081;28;20415;-71
2022/05/17 08:21:52;;;;;;;5.73;4.13;;;22.40;99.90;;;;;;5073169;28;20424;-74
2022/05/17 08:24:18;;;;;;;5.60;4.50;;;22.60;99.90;;;;;;5071103;28;20333;-71
2022/05/17 08:29:28;;;;;;;5.13;4.50;;;22.70;99.90;;;;;;5081245;28;20230;-73
2022/05/17 08:34:37;;;;;;;5.67;4.37;;;22.60;99.90;;;;;;5073682;28;20177;-70
2022/05/17 08:37:03;;;;;;;6.60;4.70;;;22.60;99.90;;;;;;5072842;28;20419;-73
2022/05/17 08:39:29;;;;;;;5.23;3.70;;;22.60;99.90;;;;;;5075350;28;20223;-72
2022/05/17 08:42:44;;;;;;;5.20;3.90;;;22.60;99.90;;;;;;5072352;28;20235;-72
2022/05/17 08:45:16;;;;;;;4.17;3.30;;;22.60;99.90;;;;;;4984371;28;20329;-72
2022/05/17 08:47:50;;;;;;;4.07;3.60;;;22.60;99.90;;;;;;5082219;28;20458;-73
2022/05/17 08:50:22;;;;;;;4.63;3.97;;;22.60;99.90;;;;;;5066864;28;20428;-71
2022/05/17 08:52:47;;;;;;;3.90;3.23;;;22.80;99.90;;;;;;5085278;28;20413;-73
2022/05/17 08:55:27;;;;;;;6.07;3.30;;;23.30;99.90;;;;;;5075198;28;20436;-72
2022/05/17 08:58:01;;;;;;;4.30;3.97;;;23.80;99.90;;;;;;5071243;28;20166;-70
2022/05/17 09:00:36;;;;;;;5.03;2.87;;;24.20;99.90;;;;;;5065086;28;20439;-71
2022/05/17 09:03:13;;;;;;;5.20;3.73;;;24.20;99.90;;;;;;5065234;28;20443;-74
2022/05/17 09:05:54;;;;;;;3.70;3.40;;;24.20;99.90;;;;;;5063309;28;21062;-75
2022/05/17 09:08:41;;;;;;;4.37;3.50;;;23.90;99.90;;;;;;5073047;28;20411;-74
2022/05/17 09:11:13;;;;;;;5.67;3.57;;;23.90;99.90;;;;;;5072270;28;20400;-75
2022/05/17 09:13:53;;;;;;;5.30;4.10;;;23.70;99.90;;;;;;5069744;28;20416;-74
2022/05/17 09:16:21;;;;;;;7.50;3.23;;;24.00;99.90;;;;;;5078234;28;20554;-74
2022/05/17 09:18:48;;;;;;;5.97;3.93;;;24.30;99.60;;;;;;5090011;28;20986;-75
2022/05/17 09:21:34;;;;;;;5.60;4.00;;;24.30;99.50;;;;;;5075112;28;20439;-75
2022/05/17 09:24:08;;;;;;;4.40;3.53;;;24.70;99.20;;;;;;5071047;28;20462;-71
2022/05/17 09:26:34;;;;;;;5.40;3.60;;;24.90;99.50;;;;;;5076553;28;20445;-73
2022/05/17 09:29:22;;;;;;;5.87;3.70;;;25.30;98.70;;;;;;5075697;28;20600;-70
2022/05/17 09:32:03;;;;;;;6.10;4.33;;;25.40;97.90;;;;;;5078090;28;20414;-72
2022/05/17 09:34:37;;;;;;;5.10;3.57;;;25.40;99.20;;;;;;5074522;28;20465;-71
2022/05/17 09:37:14;;;;;;;4.67;4.00;;;25.00;98.00;;;;;;5077972;28;20404;-72
2022/05/17 09:39:46;;;;;;;6.60;4.00;;;25.00;97.90;;;;;;5070730;28;20942;-71
2022/05/17 09:42:20;;;;;;;4.13;2.93;;;25.00;97.90;;;;;;5066378;28;20409;-70
2022/05/17 09:44:52;;;;;;;6.37;4.83;;;25.30;97.10;;;;;;5082941;28;20490;-71
2022/05/17 09:47:30;;;;;;;5.40;4.03;;;25.00;97.40;;;;;;5084370;28;20430;-71
2022/05/17 09:52:57;;;;;;;7.37;4.63;;;25.20;96.80;;;;;;5084760;28;20432;-73
2022/05/17 09:55:30;;;;;;;5.50;4.63;;;24.90;97.30;;;;;;5074453;28;20468;-72
2022/05/17 09:58:02;;;;;;;7.13;4.20;;;25.10;97.60;;;;;;5066953;28;20736;-72
2022/05/17 10:00:49;;;;;;;4.67;4.23;;;25.50;98.20;;;;;;5075095;28;20407;-72
2022/05/17 10:03:15;;;;;;;5.43;4.20;;;25.20;97.60;;;;;;5076473;28;20440;-70
2022/05/17 10:05:40;;;;;;;6.63;3.90;;;25.30;97.80;;;;;;5074512;28;20484;-70
2022/05/17 10:08:26;;;;;;;4.70;3.90;;;24.90;98.80;;;;;;5073639;28;20166;-71
2022/05/17 10:11:00;;;;;;;5.30;4.57;;;25.00;98.70;;;;;;5074723;28;20251;-69
2022/05/17 10:13:51;;;;;;;5.17;4.50;;;25.40;98.30;;;;;;5075189;28;20422;-71
2022/05/17 10:16:34;;;;;;;6.57;3.93;;;25.40;98.50;;;;;;5065299;28;20485;-70
2022/05/17 10:19:17;;;;;;;4.67;3.80;;;25.70;98.20;;;;;;5062106;28;20415;-69
2022/05/17 10:21:52;;;;;;;5.07;4.20;;;26.10;96.10;;;;;;5071969;28;20907;-70
2022/05/17 10:24:27;;;;;;;6.53;4.37;;;25.10;97.00;;;;;;5068785;28;20449;-70
2022/05/17 10:27:09;;;;;;;7.97;4.23;;;24.80;97.10;;;;;;5079618;28;20430;-72
2022/05/17 10:29:54;;;;;;;4.43;3.80;;;24.70;97.20;;;;;;5083872;28;20395;-70
2022/05/17 10:32:47;;;;;;;5.17;4.67;;;24.90;97.60;;;;;;5067708;28;20400;-72
2022/05/17 10:35:37;;;;;;;4.50;4.10;;;24.60;97.20;;;;;;5073720;28;20420;-71
2022/05/17 10:38:18;;;;;;;5.30;4.17;;;24.70;97.60;;;;;;5077123;28;20404;-71
2022/05/17 10:40:50;;;;;;;4.53;3.80;;;25.00;96.40;;;;;;5070685;28;20400;-71
2022/05/17 10:43:31;;;;;;;4.67;3.43;;;25.40;96.70;;;;;;5071373;28;20452;-72
2022/05/17 10:46:19;;;;;;;3.93;3.53;;;26.00;95.70;;;;;;5073359;28;20455;-72
2022/05/17 10:49:10;;;;;;;8.07;4.23;;;26.20;95.00;;;;;;5074382;28;20427;-74
2022/05/17 10:52:05;;;;;;;6.07;4.27;;;26.20;94.10;;;;;;5087772;28;20399;-73
2022/05/17 10:54:46;;;;;;;8.40;4.20;;;25.80;94.10;;;;;;5083952;28;20506;-72
2022/05/17 10:57:38;;;;;;;5.00;3.90;;;26.10;94.20;;;;;;5067527;28;20944;-73
2022/05/17 11:00:21;;;;;;;5.30;4.20;;;26.10;94.20;;;;;;5073742;28;21479;-73
2022/05/17 11:03:28;;;;;;;5.50;4.20;;;25.80;93.40;;;;;;5087098;28;20504;-73
2022/05/17 11:06:26;;;;;;;4.13;3.47;;;25.90;93.90;;;;;;5065992;28;20497;-72
2022/05/17 11:08:58;;;;;;;3.80;3.40;;;26.30;92.80;;;;;;5068436;28;20408;-68
2022/05/17 11:11:50;;;;;;;5.73;4.13;;;26.70;93.90;;;;;;5068997;28;20439;-70
2022/05/17 11:14:27;;;;;;;5.53;3.27;;;27.00;91.50;;;;;;5086346;28;20400;-72
2022/05/17 11:17:14;;;;;;;4.33;3.43;;;27.10;91.00;;;;;;5076746;28;20836;-72
2022/05/17 11:20:04;;;;;;;5.03;3.47;;;27.20;91.50;;;;;;5072077;28;20438;-71
2022/05/17 11:23:06;;;;;;;3.83;2.93;;;27.40;90.20;;;;;;5068532;28;20939;-71
2022/05/17 11:25:44;;;;;;;5.43;3.77;;;27.80;89.10;;;;;;5069803;28;20421;-71
2022/05/17 11:28:30;;;;;;;3.10;2.80;;;28.50;88.20;;;;;;5071955;28;20397;-74
2022/05/17 11:31:06;;;;;;;3.67;2.53;;;28.60;83.00;;;;;;5081953;28;20892;-74
2022/05/17 11:33:39;;;;;;;4.30;2.77;;;29.00;83.00;;;;;;5067190;28;20416;-74
2022/05/17 11:36:10;;;;;;;5.40;2.83;;;30.90;77.50;;;;;;5066138;28;20468;-73
2022/05/17 11:38:36;;;;;;;5.00;3.17;;;31.70;75.50;;;;;;5072688;28;20407;-74
2022/05/17 11:41:06;;;;;;;4.13;3.13;;;32.00;70.80;;;;;;5077970;28;20923;-72
2022/05/17 11:43:47;;;;;;;5.27;3.00;;;31.00;71.20;;;;;;5086506;28;20465;-72
2022/05/17 11:46:24;;;;;;;2.90;2.47;;;30.90;70.20;;;;;;5070826;28;20936;-73
2022/05/17 11:49:17;;;;;;;3.47;2.60;;;29.40;71.60;;;;;;5066498;28;20408;-71
2022/05/17 11:51:58;;;;;;;4.67;2.40;;;29.70;71.50;;;;;;5068745;28;20405;-73
2022/05/17 11:54:42;;;;;;;4.40;2.70;;;30.40;70.50;;;;;;5066603;28;20522;-73
2022/05/17 11:57:09;;;;;;;3.73;2.90;;;31.40;66.90;;;;;;5074513;28;20424;-73
2022/05/17 11:59:54;;;;;;;3.50;2.30;;;32.60;67.90;;;;;;5099235;28;20442;-74
2022/05/17 12:02:39;;;;;;;4.60;2.50;;;32.50;64.60;;;;;;5082118;28;20412;-73
2022/05/17 12:05:09;;;;;;;5.07;2.23;;;32.20;60.90;;;;;;5066544;28;20531;-73
2022/05/17 12:07:36;;;;;;;3.10;2.20;;;31.40;61.00;;;;;;5068945;28;20962;-72
2022/05/17 12:10:15;;;;;;;3.53;2.17;;;30.70;62.80;;;;;;5067832;28;20424;-72
2022/05/17 12:12:48;;;;;;;3.33;1.97;;;33.30;59.80;;;;;;5069762;28;20905;-75
2022/05/17 12:15:29;;;;;;;4.17;2.00;;;33.10;55.90;;;;;;5086368;28;20457;-71
2022/05/17 12:18:09;;;;;;;2.63;1.70;;;30.70;59.00;;;;;;5075303;28;20443;-73
2022/05/17 12:21:09;;;;;;;2.20;1.80;;;30.90;58.70;;;;;;5073379;28;20933;-73
2022/05/17 12:24:02;;;;;;;1.70;1.60;;;31.70;57.20;;;;;;5083177;28;20455;-73
2022/05/17 12:26:52;;;;;;;2.53;1.87;;;32.20;57.60;;;;;;5084646;28;20502;-74
2022/05/17 12:32:10;;;;;;;1.87;1.37;;;32.60;55.30;;;;;;5085803;28;20475;-74
2022/05/17 12:34:40;;;;;;;3.33;2.27;;;32.70;53.50;;;;;;5077960;28;20416;-69
2022/05/17 12:37:14;;;;;;;3.87;2.13;;;33.10;54.50;;;;;;5070888;28;20584;-73
2022/05/17 12:45:19;;;;;;;3.27;1.77;;;34.00;53.90;;;;;;5080069;28;20426;-75
2022/05/17 12:47:50;;;;;;;2.03;1.90;;;33.90;51.80;;;;;;5072749;28;20463;-73
2022/05/17 12:50:29;;;;;;;2.90;1.43;;;33.90;54.20;;;;;;5069227;28;20446;-73
2022/05/17 12:52:57;;;;;;;2.33;1.50;;;33.20;52.50;;;;;;5084176;28;20403;-73
2022/05/17 12:55:30;;;;;;;3.47;1.97;;;33.00;51.30;;;;;;5069749;28;20567;-72
2022/05/17 12:58:06;;;;;;;1.93;1.23;;;32.50;51.70;;;;;;5077194;28;20627;-70
2022/05/17 13:00:32;;;;;;;2.87;1.10;;;32.90;51.90;;;;;;5069427;28;20395;-71
2022/05/17 13:03:19;;;;;;;4.10;1.17;;;33.10;50.50;;;;;;5100683;28;20990;-71
2022/05/17 13:05:49;;;;;;;2.07;1.50;;;33.40;51.30;;;;;;5068408;28;20428;-71
2022/05/17 13:08:24;;;;;;;2.37;1.33;;;33.80;49.20;;;;;;5065188;28;20479;-72
2022/05/17 13:11:18;;;;;;;1.37;1.27;;;34.20;48.50;;;;;;5065073;28;20400;-72
2022/05/17 13:13:46;;;;;;;3.07;1.13;;;34.10;48.20;;;;;;5068776;28;20920;-72
2022/05/17 13:16:20;;;;;;;3.40;1.50;;;34.40;47.00;;;;;;5079534;28;20440;-72
2022/05/17 13:18:50;;;;;;;1.80;1.07;;;35.20;48.00;;;;;;5082703;28;20416;-75
2022/05/17 13:21:45;;;;;;;2.53;1.50;;;35.40;45.80;;;;;;5082355;28;21249;-75
2022/05/17 13:24:34;;;;;;;2.67;1.30;;;34.60;47.00;;;;;;5075744;28;20462;-74
2022/05/17 13:27:04;;;;;;;3.27;1.90;;;34.80;46.60;;;;;;5059098;28;20933;-75